AS9GS EPWR-EPWR
Flight info
| Callsign | AS9GS |
|---|---|
| Flight time | 0h 22m |
| Altitude | 2000 |
| Route | VFR PATTERNS |
| Aircraft | C152/L-V/N |
Departure
| Time | 2026-05-07 18:10 |
|---|---|
| Airport | Copernicus Wrocław Airport (EPWR) |
Arrival
| Time | 2026-05-07 18:32 |
|---|---|
| Airport | Copernicus Wrocław Airport (EPWR) |
| Time | Latitude | Longitude | Altitude | Speed | Heading |
|---|---|---|---|---|---|
| 2026-05-07 17:51 | 51.10813 | 16.88136 | 407 ft | 0 kts | 34° |
| 2026-05-07 18:00 | 51.10818 | 16.88148 | 407 ft | 8 kts | 78° |
| 2026-05-07 18:00 | 51.10799 | 16.88125 | 407 ft | 7 kts | 282° |
| 2026-05-07 18:00 | 51.10801 | 16.88109 | 407 ft | 1 kts | 272° |
| 2026-05-07 18:01 | 51.10812 | 16.87966 | 407 ft | 22 kts | 288° |
| 2026-05-07 18:01 | 51.10871 | 16.87716 | 407 ft | 26 kts | 289° |
| 2026-05-07 18:01 | 51.10953 | 16.87436 | 407 ft | 26 kts | 261° |
| 2026-05-07 18:01 | 51.10908 | 16.87369 | 407 ft | 0 kts | 205° |
| 2026-05-07 18:02 | 51.10771 | 16.87291 | 407 ft | 0 kts | 204° |
| 2026-05-07 18:03 | 51.10670 | 16.87319 | 406 ft | 25 kts | 126° |
| 2026-05-07 18:04 | 51.10541 | 16.87673 | 405 ft | 44 kts | 121° |
| 2026-05-07 18:04 | 51.10517 | 16.87825 | 406 ft | 9 kts | 297° |
| 2026-05-07 18:04 | 51.10521 | 16.87812 | 406 ft | 0 kts | 290° |
| 2026-05-07 18:04 | 51.10534 | 16.87767 | 405 ft | 22 kts | 293° |
| 2026-05-07 18:05 | 51.10679 | 16.87289 | 407 ft | 70 kts | 295° |
| 2026-05-07 18:05 | 51.10937 | 16.86481 | 495 ft | 90 kts | 302° |
| 2026-05-07 18:05 | 51.11086 | 16.85454 | 666 ft | 103 kts | 262° |
| 2026-05-07 18:05 | 51.10512 | 16.84824 | 724 ft | 114 kts | 168° |
| 2026-05-07 18:06 | 51.10035 | 16.85616 | 870 ft | 94 kts | 112° |
| 2026-05-07 18:06 | 51.09752 | 16.86524 | 827 ft | 90 kts | 113° |
| 2026-05-07 18:06 | 51.09475 | 16.87370 | 848 ft | 82 kts | 112° |
| 2026-05-07 18:06 | 51.09231 | 16.88155 | 855 ft | 78 kts | 111° |
| 2026-05-07 18:07 | 51.09010 | 16.88929 | 845 ft | 78 kts | 110° |
| 2026-05-07 18:07 | 51.08812 | 16.89729 | 875 ft | 78 kts | 106° |
| 2026-05-07 18:07 | 51.08608 | 16.90529 | 843 ft | 78 kts | 110° |
| 2026-05-07 18:07 | 51.08407 | 16.91333 | 864 ft | 81 kts | 105° |
| 2026-05-07 18:08 | 51.08428 | 16.92109 | 885 ft | 73 kts | 31° |
| 2026-05-07 18:08 | 51.08937 | 16.91954 | 780 ft | 83 kts | 329° |
| 2026-05-07 18:08 | 51.09384 | 16.91290 | 704 ft | 88 kts | 309° |
| 2026-05-07 18:08 | 51.09638 | 16.90547 | 630 ft | 75 kts | 301° |
| 2026-05-07 18:09 | 51.09878 | 16.89794 | 477 ft | 79 kts | 300° |
| 2026-05-07 18:09 | 51.10107 | 16.89084 | 406 ft | 60 kts | 305° |
| 2026-05-07 18:09 | 51.10334 | 16.88353 | 450 ft | 86 kts | 297° |
| 2026-05-07 18:09 | 51.10584 | 16.87429 | 667 ft | 88 kts | 296° |
| 2026-05-07 18:10 | 51.10836 | 16.86503 | 916 ft | 95 kts | 294° |
| 2026-05-07 18:10 | 51.10636 | 16.85536 | 1073 ft | 106 kts | 221° |
| 2026-05-07 18:10 | 51.09996 | 16.85009 | 1032 ft | 104 kts | 202° |
| 2026-05-07 18:10 | 51.09327 | 16.85235 | 920 ft | 107 kts | 131° |
| 2026-05-07 18:11 | 51.09122 | 16.86268 | 954 ft | 92 kts | 94° |
| 2026-05-07 18:11 | 51.09056 | 16.86922 | 979 ft | 87 kts | 94° |
| 2026-05-07 18:11 | 51.08880 | 16.88122 | 1017 ft | 86 kts | 123° |
| 2026-05-07 18:11 | 51.08340 | 16.88576 | 991 ft | 94 kts | 178° |
| 2026-05-07 18:12 | 51.07837 | 16.88041 | 960 ft | 92 kts | 265° |
| 2026-05-07 18:12 | 51.08176 | 16.87414 | 941 ft | 83 kts | 7° |
| 2026-05-07 18:12 | 51.08477 | 16.88099 | 941 ft | 91 kts | 96° |
| 2026-05-07 18:12 | 51.07936 | 16.88483 | 891 ft | 100 kts | 212° |
| 2026-05-07 18:13 | 51.07822 | 16.87628 | 891 ft | 87 kts | 323° |
| 2026-05-07 18:13 | 51.08279 | 16.87834 | 866 ft | 93 kts | 71° |
| 2026-05-07 18:13 | 51.07831 | 16.88434 | 809 ft | 99 kts | 191° |
| 2026-05-07 18:13 | 51.07376 | 16.87806 | 884 ft | 90 kts | 257° |
| 2026-05-07 18:14 | 51.07450 | 16.86925 | 962 ft | 81 kts | 311° |
| 2026-05-07 18:14 | 51.07916 | 16.86496 | 1029 ft | 78 kts | 354° |
| 2026-05-07 18:14 | 51.08387 | 16.86837 | 1005 ft | 85 kts | 57° |
| 2026-05-07 18:14 | 51.08360 | 16.87722 | 1112 ft | 86 kts | 120° |
| 2026-05-07 18:15 | 51.07782 | 16.88108 | 1101 ft | 95 kts | 191° |
| 2026-05-07 18:15 | 51.07293 | 16.87499 | 1130 ft | 88 kts | 247° |
| 2026-05-07 18:15 | 51.07164 | 16.86545 | 1155 ft | 86 kts | 277° |
| 2026-05-07 18:15 | 51.07302 | 16.85686 | 1153 ft | 82 kts | 309° |
| 2026-05-07 18:16 | 51.07768 | 16.85300 | 1143 ft | 79 kts | 11° |
| 2026-05-07 18:16 | 51.08103 | 16.85937 | 1121 ft | 87 kts | 89° |
| 2026-05-07 18:16 | 51.07698 | 16.86575 | 1141 ft | 93 kts | 181° |
| 2026-05-07 18:16 | 51.07311 | 16.85875 | 1082 ft | 90 kts | 286° |
| 2026-05-07 18:17 | 51.07742 | 16.85536 | 1034 ft | 87 kts | 37° |
| 2026-05-07 18:17 | 51.07968 | 16.86380 | 1094 ft | 84 kts | 81° |
| 2026-05-07 18:17 | 51.07873 | 16.87256 | 1064 ft | 85 kts | 129° |
| 2026-05-07 18:17 | 51.07335 | 16.87177 | 906 ft | 91 kts | 268° |
| 2026-05-07 18:18 | 51.07636 | 16.86790 | 890 ft | 67 kts | 25° |
| 2026-05-07 18:18 | 51.07816 | 16.87430 | 908 ft | 71 kts | 95° |
| 2026-05-07 18:18 | 51.07672 | 16.88237 | 933 ft | 80 kts | 113° |
| 2026-05-07 18:18 | 51.07184 | 16.88727 | 995 ft | 89 kts | 174° |
| 2026-05-07 18:19 | 51.06617 | 16.88449 | 1110 ft | 84 kts | 222° |
| 2026-05-07 18:19 | 51.06279 | 16.87686 | 1202 ft | 83 kts | 252° |
| 2026-05-07 18:19 | 51.06173 | 16.86839 | 1242 ft | 82 kts | 285° |
| 2026-05-07 18:19 | 51.06438 | 16.86064 | 1300 ft | 78 kts | 318° |
| 2026-05-07 18:20 | 51.06881 | 16.85578 | 1349 ft | 77 kts | 342° |
| 2026-05-07 18:20 | 51.07397 | 16.85611 | 1403 ft | 78 kts | 23° |
| 2026-05-07 18:20 | 51.07839 | 16.86125 | 1419 ft | 83 kts | 46° |
| 2026-05-07 18:20 | 51.08029 | 16.86992 | 1487 ft | 87 kts | 84° |
| 2026-05-07 18:21 | 51.07934 | 16.87947 | 1489 ft | 95 kts | 106° |
| 2026-05-07 18:21 | 51.07643 | 16.88900 | 1500 ft | 101 kts | 140° |
| 2026-05-07 18:21 | 51.06997 | 16.88588 | 1456 ft | 107 kts | 235° |
| 2026-05-07 18:21 | 51.06874 | 16.87545 | 1502 ft | 97 kts | 288° |
| 2026-05-07 18:22 | 51.07143 | 16.86529 | 1474 ft | 99 kts | 301° |
| 2026-05-07 18:22 | 51.07417 | 16.85969 | 1459 ft | 96 kts | 330° |
| 2026-05-07 18:22 | 51.08253 | 16.85548 | 1378 ft | 98 kts | 4° |
| 2026-05-07 18:22 | 51.08929 | 16.85783 | 1387 ft | 97 kts | 26° |
| 2026-05-07 18:23 | 51.09292 | 16.86665 | 1303 ft | 106 kts | 81° |
| 2026-05-07 18:23 | 51.09094 | 16.87792 | 1322 ft | 106 kts | 109° |
| 2026-05-07 18:23 | 51.08835 | 16.88860 | 1345 ft | 102 kts | 101° |
| 2026-05-07 18:23 | 51.08674 | 16.89953 | 1307 ft | 103 kts | 104° |
| 2026-05-07 18:24 | 51.08427 | 16.91070 | 1255 ft | 107 kts | 107° |
| 2026-05-07 18:24 | 51.08198 | 16.92141 | 1239 ft | 102 kts | 105° |
| 2026-05-07 18:24 | 51.07939 | 16.93199 | 1234 ft | 99 kts | 100° |
| 2026-05-07 18:24 | 51.08230 | 16.94009 | 1028 ft | 99 kts | 6° |
| 2026-05-07 18:25 | 51.08752 | 16.93497 | 1104 ft | 86 kts | 298° |
| 2026-05-07 18:25 | 51.08977 | 16.92661 | 903 ft | 79 kts | 302° |
| 2026-05-07 18:25 | 51.09213 | 16.91900 | 750 ft | 77 kts | 302° |
| 2026-05-07 18:25 | 51.09450 | 16.91134 | 657 ft | 78 kts | 303° |
| 2026-05-07 18:26 | 51.09695 | 16.90361 | 571 ft | 81 kts | 302° |
| 2026-05-07 18:26 | 51.09958 | 16.89565 | 440 ft | 81 kts | 306° |
| 2026-05-07 18:26 | 51.10190 | 16.88854 | 406 ft | 61 kts | 302° |
| 2026-05-07 18:26 | 51.10410 | 16.88107 | 468 ft | 87 kts | 295° |
| 2026-05-07 18:27 | 51.10558 | 16.87187 | 700 ft | 85 kts | 274° |
| 2026-05-07 18:27 | 51.10135 | 16.86539 | 911 ft | 97 kts | 192° |
| 2026-05-07 18:27 | 51.09453 | 16.86357 | 1141 ft | 101 kts | 185° |
| 2026-05-07 18:27 | 51.08987 | 16.86440 | 1189 ft | 100 kts | 158° |
| 2026-05-07 18:28 | 51.08428 | 16.87395 | 1357 ft | 88 kts | 109° |
| 2026-05-07 18:28 | 51.08185 | 16.88313 | 1377 ft | 94 kts | 132° |
| 2026-05-07 18:28 | 51.07598 | 16.88838 | 1223 ft | 100 kts | 111° |
| 2026-05-07 18:28 | 51.07388 | 16.89823 | 1312 ft | 87 kts | 109° |
| 2026-05-07 18:29 | 51.07158 | 16.90570 | 1223 ft | 87 kts | 110° |
| 2026-05-07 18:29 | 51.07001 | 16.91334 | 1228 ft | 78 kts | 99° |
| 2026-05-07 18:29 | 51.06805 | 16.92195 | 1227 ft | 86 kts | 101° |
| 2026-05-07 18:29 | 51.06778 | 16.93072 | 1277 ft | 79 kts | 47° |
| 2026-05-07 18:30 | 51.07124 | 16.93656 | 1094 ft | 82 kts | 22° |
| 2026-05-07 18:30 | 51.07622 | 16.93543 | 1093 ft | 74 kts | 353° |
| 2026-05-07 18:30 | 51.08097 | 16.93414 | 1050 ft | 70 kts | 346° |
| 2026-05-07 18:30 | 51.08493 | 16.92986 | 998 ft | 65 kts | 317° |
| 2026-05-07 18:31 | 51.08826 | 16.92445 | 848 ft | 70 kts | 317° |
| 2026-05-07 18:31 | 51.09117 | 16.91830 | 744 ft | 70 kts | 313° |
| 2026-05-07 18:31 | 51.09383 | 16.91169 | 656 ft | 76 kts | 306° |
| 2026-05-07 18:31 | 51.09640 | 16.90496 | 601 ft | 67 kts | 307° |
| 2026-05-07 18:32 | 51.09873 | 16.89842 | 480 ft | 69 kts | 303° |
| 2026-05-07 18:32 | 51.10090 | 16.89174 | 410 ft | 62 kts | 301° |
| 2026-05-07 18:32 | 51.10259 | 16.88677 | 406 ft | 43 kts | 291° |
| 2026-05-07 18:32 | 51.10387 | 16.88238 | 409 ft | 45 kts | 297° |
| 2026-05-07 18:33 | 51.10504 | 16.87835 | 406 ft | 53 kts | 296° |
| 2026-05-07 18:33 | 51.10666 | 16.87322 | 406 ft | 38 kts | 295° |
| 2026-05-07 18:33 | 51.10550 | 16.87133 | 407 ft | 15 kts | 206° |
| 2026-05-07 18:33 | 51.10469 | 16.87074 | 407 ft | 12 kts | 177° |
| 2026-05-07 18:34 | 51.10413 | 16.87204 | 407 ft | 22 kts | 117° |
| 2026-05-07 18:34 | 51.10306 | 16.87549 | 407 ft | 35 kts | 113° |
| 2026-05-07 18:34 | 51.10210 | 16.87865 | 406 ft | 29 kts | 113° |
| 2026-05-07 18:34 | 51.10075 | 16.88129 | 406 ft | 21 kts | 135° |
| 2026-05-07 18:35 | 51.10001 | 16.88267 | 406 ft | 13 kts | 136° |
| 2026-05-07 18:35 | 51.09967 | 16.88253 | 406 ft | 0 kts | 216° |